sensor_id;sensor_type;location;lat;lon;timestamp;temperature;humidity
18225;DHT22;9237;48.590;8.854;2023-04-25T00:01:20;6.40;99.90
18225;DHT22;9237;48.590;8.854;2023-04-25T00:03:48;6.40;99.90
18225;DHT22;9237;48.590;8.854;2023-04-25T00:06:15;6.70;99.90
18225;DHT22;9237;48.590;8.854;2023-04-25T00:08:43;6.30;99.90
18225;DHT22;9237;48.590;8.854;2023-04-25T00:11:11;6.20;99.90
18225;DHT22;9237;48.590;8.854;2023-04-25T00:13:38;6.20;99.90
18225;DHT22;9237;48.590;8.854;2023-04-25T00:16:07;6.20;99.90
18225;DHT22;9237;48.590;8.854;2023-04-25T00:18:33;6.20;99.90
18225;DHT22;9237;48.590;8.854;2023-04-25T00:21:00;6.20;99.90
18225;DHT22;9237;48.590;8.854;2023-04-25T00:23:28;6.20;99.90
18225;DHT22;9237;48.590;8.854;2023-04-25T00:25:54;6.20;99.90
18225;DHT22;9237;48.590;8.854;2023-04-25T00:28:22;6.20;99.90
18225;DHT22;9237;48.590;8.854;2023-04-25T00:30:49;6.10;99.90
18225;DHT22;9237;48.590;8.854;2023-04-25T00:33:16;5.90;99.90
18225;DHT22;9237;48.590;8.854;2023-04-25T00:35:43;5.80;99.90
18225;DHT22;9237;48.590;8.854;2023-04-25T00:38:10;5.70;99.90
18225;DHT22;9237;48.590;8.854;2023-04-25T00:40:37;5.70;99.90
18225;DHT22;9237;48.590;8.854;2023-04-25T00:43:04;5.60;99.90
18225;DHT22;9237;48.590;8.854;2023-04-25T00:45:32;5.60;99.90
18225;DHT22;9237;48.590;8.854;2023-04-25T00:48:04;5.60;99.90
18225;DHT22;9237;48.590;8.854;2023-04-25T00:50:32;5.60;99.90
18225;DHT22;9237;48.590;8.854;2023-04-25T00:53:00;5.70;99.90
18225;DHT22;9237;48.590;8.854;2023-04-25T00:55:27;5.80;99.90
18225;DHT22;9237;48.590;8.854;2023-04-25T00:57:54;5.90;99.90
18225;DHT22;9237;48.590;8.854;2023-04-25T01:00:21;5.90;99.90
18225;DHT22;9237;48.590;8.854;2023-04-25T01:02:49;6.00;99.90
18225;DHT22;9237;48.590;8.854;2023-04-25T01:05:16;6.00;99.90
18225;DHT22;9237;48.590;8.854;2023-04-25T01:10:12;6.00;99.90
18225;DHT22;9237;48.590;8.854;2023-04-25T01:12:39;6.10;99.90
18225;DHT22;9237;48.590;8.854;2023-04-25T01:15:06;6.10;99.90
18225;DHT22;9237;48.590;8.854;2023-04-25T01:17:34;6.20;99.90
18225;DHT22;9237;48.590;8.854;2023-04-25T01:20:03;6.10;99.90
18225;DHT22;9237;48.590;8.854;2023-04-25T01:22:32;6.10;99.90
18225;DHT22;9237;48.590;8.854;2023-04-25T01:24:59;6.10;99.90
18225;DHT22;9237;48.590;8.854;2023-04-25T01:27:27;6.10;99.90
18225;DHT22;9237;48.590;8.854;2023-04-25T01:29:54;6.20;99.90
18225;DHT22;9237;48.590;8.854;2023-04-25T01:32:22;6.20;99.90
18225;DHT22;9237;48.590;8.854;2023-04-25T01:34:49;6.20;99.90
18225;DHT22;9237;48.590;8.854;2023-04-25T01:37:16;6.30;99.90
18225;DHT22;9237;48.590;8.854;2023-04-25T01:39:45;6.30;99.90
18225;DHT22;9237;48.590;8.854;2023-04-25T01:42:12;6.30;99.90
18225;DHT22;9237;48.590;8.854;2023-04-25T01:44:39;6.30;99.90
18225;DHT22;9237;48.590;8.854;2023-04-25T01:47:06;6.30;99.90
18225;DHT22;9237;48.590;8.854;2023-04-25T01:49:33;6.20;99.90
18225;DHT22;9237;48.590;8.854;2023-04-25T01:52:00;6.20;99.90
18225;DHT22;9237;48.590;8.854;2023-04-25T01:54:26;6.20;99.90
18225;DHT22;9237;48.590;8.854;2023-04-25T01:56:57;6.10;99.90
18225;DHT22;9237;48.590;8.854;2023-04-25T01:59:24;6.60;99.90
18225;DHT22;9237;48.590;8.854;2023-04-25T02:01:51;6.00;99.90
18225;DHT22;9237;48.590;8.854;2023-04-25T02:04:18;5.90;99.90
18225;DHT22;9237;48.590;8.854;2023-04-25T02:06:44;5.90;99.90
18225;DHT22;9237;48.590;8.854;2023-04-25T02:09:11;5.80;99.90
18225;DHT22;9237;48.590;8.854;2023-04-25T02:11:38;5.70;99.90
18225;DHT22;9237;48.590;8.854;2023-04-25T02:14:06;5.80;99.90
18225;DHT22;9237;48.590;8.854;2023-04-25T02:16:33;5.80;99.90
18225;DHT22;9237;48.590;8.854;2023-04-25T02:19:01;5.70;99.90
18225;DHT22;9237;48.590;8.854;2023-04-25T02:21:28;5.60;99.90
18225;DHT22;9237;48.590;8.854;2023-04-25T02:23:56;5.50;99.90
18225;DHT22;9237;48.590;8.854;2023-04-25T02:26:22;5.40;99.90
18225;DHT22;9237;48.590;8.854;2023-04-25T02:28:50;5.40;99.90
18225;DHT22;9237;48.590;8.854;2023-04-25T02:31:18;5.30;99.90
18225;DHT22;9237;48.590;8.854;2023-04-25T02:33:45;5.30;99.90
18225;DHT22;9237;48.590;8.854;2023-04-25T02:36:12;5.20;99.90
18225;DHT22;9237;48.590;8.854;2023-04-25T02:38:39;5.20;99.90
18225;DHT22;9237;48.590;8.854;2023-04-25T02:41:06;5.10;99.90
18225;DHT22;9237;48.590;8.854;2023-04-25T02:43:33;5.00;99.90
18225;DHT22;9237;48.590;8.854;2023-04-25T02:46:00;5.00;99.90
18225;DHT22;9237;48.590;8.854;2023-04-25T02:48:28;5.00;99.90
18225;DHT22;9237;48.590;8.854;2023-04-25T02:50:54;5.00;99.90
18225;DHT22;9237;48.590;8.854;2023-04-25T02:53:21;5.00;99.90
18225;DHT22;9237;48.590;8.854;2023-04-25T02:55:48;5.10;99.90
18225;DHT22;9237;48.590;8.854;2023-04-25T02:58:15;5.10;99.90
18225;DHT22;9237;48.590;8.854;2023-04-25T03:00:42;5.10;99.90
18225;DHT22;9237;48.590;8.854;2023-04-25T03:03:09;5.20;99.90
18225;DHT22;9237;48.590;8.854;2023-04-25T03:05:37;5.20;99.90
18225;DHT22;9237;48.590;8.854;2023-04-25T03:08:04;5.30;99.90
18225;DHT22;9237;48.590;8.854;2023-04-25T03:10:31;5.30;99.90
18225;DHT22;9237;48.590;8.854;2023-04-25T03:12:57;5.40;99.90
18225;DHT22;9237;48.590;8.854;2023-04-25T03:15:24;5.40;99.90
18225;DHT22;9237;48.590;8.854;2023-04-25T03:17:51;5.40;99.90
18225;DHT22;9237;48.590;8.854;2023-04-25T03:20:18;5.40;99.90
18225;DHT22;9237;48.590;8.854;2023-04-25T03:22:46;5.30;99.90
18225;DHT22;9237;48.590;8.854;2023-04-25T03:25:12;5.30;99.90
18225;DHT22;9237;48.590;8.854;2023-04-25T03:27:39;5.40;99.90
18225;DHT22;9237;48.590;8.854;2023-04-25T03:30:07;5.40;99.90
18225;DHT22;9237;48.590;8.854;2023-04-25T03:32:34;5.30;99.90
18225;DHT22;9237;48.590;8.854;2023-04-25T03:35:01;5.20;99.90
18225;DHT22;9237;48.590;8.854;2023-04-25T03:37:28;5.10;99.90
18225;DHT22;9237;48.590;8.854;2023-04-25T03:39:56;5.10;99.90
18225;DHT22;9237;48.590;8.854;2023-04-25T03:42:22;5.00;99.90
18225;DHT22;9237;48.590;8.854;2023-04-25T03:44:49;4.80;99.90
18225;DHT22;9237;48.590;8.854;2023-04-25T03:47:16;4.70;99.90
18225;DHT22;9237;48.590;8.854;2023-04-25T03:49:43;4.70;99.90
18225;DHT22;9237;48.590;8.854;2023-04-25T03:52:10;4.70;99.90
18225;DHT22;9237;48.590;8.854;2023-04-25T03:54:36;4.50;99.90
18225;DHT22;9237;48.590;8.854;2023-04-25T03:57:04;4.40;99.90
18225;DHT22;9237;48.590;8.854;2023-04-25T03:59:31;4.30;99.90
18225;DHT22;9237;48.590;8.854;2023-04-25T04:01:58;4.30;99.90
18225;DHT22;9237;48.590;8.854;2023-04-25T04:04:25;4.20;99.90
18225;DHT22;9237;48.590;8.854;2023-04-25T04:06:51;4.10;99.90
18225;DHT22;9237;48.590;8.854;2023-04-25T04:09:18;4.10;99.90
18225;DHT22;9237;48.590;8.854;2023-04-25T04:11:46;4.10;99.90
18225;DHT22;9237;48.590;8.854;2023-04-25T04:14:14;4.00;99.90
18225;DHT22;9237;48.590;8.854;2023-04-25T04:16:41;3.90;99.90
18225;DHT22;9237;48.590;8.854;2023-04-25T04:19:08;3.80;99.90
18225;DHT22;9237;48.590;8.854;2023-04-25T04:21:34;3.80;99.90
18225;DHT22;9237;48.590;8.854;2023-04-25T04:24:01;4.10;99.90
18225;DHT22;9237;48.590;8.854;2023-04-25T04:26:28;3.90;99.90
18225;DHT22;9237;48.590;8.854;2023-04-25T04:28:57;4.00;99.90
18225;DHT22;9237;48.590;8.854;2023-04-25T04:31:26;4.10;99.90
18225;DHT22;9237;48.590;8.854;2023-04-25T04:33:52;4.10;99.90
18225;DHT22;9237;48.590;8.854;2023-04-25T04:36:19;4.10;99.90
18225;DHT22;9237;48.590;8.854;2023-04-25T04:38:47;4.20;99.90
18225;DHT22;9237;48.590;8.854;2023-04-25T04:41:14;4.30;99.90
18225;DHT22;9237;48.590;8.854;2023-04-25T04:43:41;4.40;99.90
18225;DHT22;9237;48.590;8.854;2023-04-25T04:46:08;4.40;99.90
18225;DHT22;9237;48.590;8.854;2023-04-25T04:48:39;4.50;99.90
18225;DHT22;9237;48.590;8.854;2023-04-25T04:51:06;4.50;99.90
18225;DHT22;9237;48.590;8.854;2023-04-25T04:53:33;4.60;99.90
18225;DHT22;9237;48.590;8.854;2023-04-25T04:56:00;4.70;99.90
18225;DHT22;9237;48.590;8.854;2023-04-25T04:58:26;4.70;99.90
18225;DHT22;9237;48.590;8.854;2023-04-25T05:00:55;4.80;99.90
18225;DHT22;9237;48.590;8.854;2023-04-25T05:03:22;4.90;99.90
18225;DHT22;9237;48.590;8.854;2023-04-25T05:05:50;4.90;99.90
18225;DHT22;9237;48.590;8.854;2023-04-25T05:08:17;5.00;99.90
18225;DHT22;9237;48.590;8.854;2023-04-25T05:10:43;5.00;99.90
18225;DHT22;9237;48.590;8.854;2023-04-25T05:13:10;5.20;99.90
18225;DHT22;9237;48.590;8.854;2023-04-25T05:15:37;5.30;99.90
18225;DHT22;9237;48.590;8.854;2023-04-25T05:18:04;5.40;99.90
18225;DHT22;9237;48.590;8.854;2023-04-25T05:20:30;5.60;99.90
18225;DHT22;9237;48.590;8.854;2023-04-25T05:22:59;5.50;99.90
18225;DHT22;9237;48.590;8.854;2023-04-25T05:25:26;5.60;99.90
18225;DHT22;9237;48.590;8.854;2023-04-25T05:27:52;5.60;99.90
18225;DHT22;9237;48.590;8.854;2023-04-25T05:30:19;5.90;99.90
18225;DHT22;9237;48.590;8.854;2023-04-25T05:32:46;5.80;99.90
18225;DHT22;9237;48.590;8.854;2023-04-25T05:35:13;6.00;99.90
18225;DHT22;9237;48.590;8.854;2023-04-25T05:37:40;6.20;99.90
18225;DHT22;9237;48.590;8.854;2023-04-25T05:40:09;6.40;99.90
18225;DHT22;9237;48.590;8.854;2023-04-25T05:42:36;6.70;99.90
18225;DHT22;9237;48.590;8.854;2023-04-25T05:45:04;6.90;99.90
18225;DHT22;9237;48.590;8.854;2023-04-25T05:47:31;7.30;99.90
18225;DHT22;9237;48.590;8.854;2023-04-25T05:49:58;8.20;99.90
18225;DHT22;9237;48.590;8.854;2023-04-25T05:52:24;7.30;99.90
18225;DHT22;9237;48.590;8.854;2023-04-25T05:54:51;7.30;99.90
18225;DHT22;9237;48.590;8.854;2023-04-25T05:57:22;7.50;99.90
18225;DHT22;9237;48.590;8.854;2023-04-25T05:59:49;7.60;99.90
18225;DHT22;9237;48.590;8.854;2023-04-25T06:02:16;7.80;99.90
18225;DHT22;9237;48.590;8.854;2023-04-25T06:04:42;8.00;99.90
18225;DHT22;9237;48.590;8.854;2023-04-25T06:07:09;8.10;99.90
18225;DHT22;9237;48.590;8.854;2023-04-25T06:09:36;8.20;99.90
18225;DHT22;9237;48.590;8.854;2023-04-25T06:12:04;9.00;99.90
18225;DHT22;9237;48.590;8.854;2023-04-25T06:14:33;8.00;99.90
18225;DHT22;9237;48.590;8.854;2023-04-25T06:17:00;7.90;99.90
18225;DHT22;9237;48.590;8.854;2023-04-25T06:19:31;7.90;99.90
18225;DHT22;9237;48.590;8.854;2023-04-25T06:21:58;7.80;99.90
18225;DHT22;9237;48.590;8.854;2023-04-25T06:24:25;7.80;99.90
18225;DHT22;9237;48.590;8.854;2023-04-25T06:26:52;7.70;99.90
18225;DHT22;9237;48.590;8.854;2023-04-25T06:29:19;7.60;99.90
18225;DHT22;9237;48.590;8.854;2023-04-25T06:31:47;7.50;99.90
18225;DHT22;9237;48.590;8.854;2023-04-25T06:34:14;7.60;99.90
18225;DHT22;9237;48.590;8.854;2023-04-25T06:36:40;7.50;99.90
18225;DHT22;9237;48.590;8.854;2023-04-25T06:39:07;7.50;99.90
18225;DHT22;9237;48.590;8.854;2023-04-25T06:41:34;7.50;99.90
18225;DHT22;9237;48.590;8.854;2023-04-25T06:44:01;7.50;99.90
18225;DHT22;9237;48.590;8.854;2023-04-25T06:46:28;7.50;99.90
18225;DHT22;9237;48.590;8.854;2023-04-25T06:48:56;7.60;99.90
18225;DHT22;9237;48.590;8.854;2023-04-25T06:51:23;7.60;99.90
18225;DHT22;9237;48.590;8.854;2023-04-25T06:53:50;7.60;99.90
18225;DHT22;9237;48.590;8.854;2023-04-25T06:56:17;7.50;99.90
18225;DHT22;9237;48.590;8.854;2023-04-25T06:58:43;7.50;99.90
18225;DHT22;9237;48.590;8.854;2023-04-25T07:01:10;7.40;99.90
18225;DHT22;9237;48.590;8.854;2023-04-25T07:03:37;7.30;99.90
18225;DHT22;9237;48.590;8.854;2023-04-25T07:06:05;7.30;99.90
18225;DHT22;9237;48.590;8.854;2023-04-25T07:08:32;7.30;99.90
18225;DHT22;9237;48.590;8.854;2023-04-25T07:10:59;7.20;99.90
18225;DHT22;9237;48.590;8.854;2023-04-25T07:13:26;7.20;99.90
18225;DHT22;9237;48.590;8.854;2023-04-25T07:15:52;7.10;99.90
18225;DHT22;9237;48.590;8.854;2023-04-25T07:18:19;7.10;99.90
18225;DHT22;9237;48.590;8.854;2023-04-25T07:20:46;7.10;99.90
18225;DHT22;9237;48.590;8.854;2023-04-25T07:23:14;7.00;99.90
18225;DHT22;9237;48.590;8.854;2023-04-25T07:25:41;7.00;99.90
18225;DHT22;9237;48.590;8.854;2023-04-25T07:28:08;7.00;99.90
18225;DHT22;9237;48.590;8.854;2023-04-25T07:30:35;7.00;99.90
18225;DHT22;9237;48.590;8.854;2023-04-25T07:33:02;7.00;99.90
18225;DHT22;9237;48.590;8.854;2023-04-25T07:35:29;7.00;99.90
18225;DHT22;9237;48.590;8.854;2023-04-25T07:37:55;7.00;99.90
18225;DHT22;9237;48.590;8.854;2023-04-25T07:40:23;7.00;99.90
18225;DHT22;9237;48.590;8.854;2023-04-25T07:42:50;7.00;99.90
18225;DHT22;9237;48.590;8.854;2023-04-25T07:45:17;6.90;99.90
18225;DHT22;9237;48.590;8.854;2023-04-25T07:47:44;6.60;99.90
18225;DHT22;9237;48.590;8.854;2023-04-25T07:50:11;6.40;99.90
18225;DHT22;9237;48.590;8.854;2023-04-25T07:52:38;6.30;99.90
18225;DHT22;9237;48.590;8.854;2023-04-25T07:55:05;6.20;99.90
18225;DHT22;9237;48.590;8.854;2023-04-25T07:57:33;6.20;99.90
18225;DHT22;9237;48.590;8.854;2023-04-25T08:00:00;6.20;99.90
18225;DHT22;9237;48.590;8.854;2023-04-25T08:02:26;6.30;99.90
18225;DHT22;9237;48.590;8.854;2023-04-25T08:04:53;6.30;99.90
18225;DHT22;9237;48.590;8.854;2023-04-25T08:07:25;6.90;99.90
18225;DHT22;9237;48.590;8.854;2023-04-25T08:09:52;6.20;99.90
18225;DHT22;9237;48.590;8.854;2023-04-25T08:12:19;6.10;99.90
18225;DHT22;9237;48.590;8.854;2023-04-25T08:14:47;6.10;99.90
18225;DHT22;9237;48.590;8.854;2023-04-25T08:17:14;6.20;99.90
18225;DHT22;9237;48.590;8.854;2023-04-25T08:19:41;6.20;99.90
18225;DHT22;9237;48.590;8.854;2023-04-25T08:22:08;6.20;99.90
18225;DHT22;9237;48.590;8.854;2023-04-25T08:24:34;6.00;99.90
18225;DHT22;9237;48.590;8.854;2023-04-25T08:27:01;6.80;99.90
18225;DHT22;9237;48.590;8.854;2023-04-25T08:29:28;6.30;99.90
18225;DHT22;9237;48.590;8.854;2023-04-25T08:31:56;5.90;99.90
18225;DHT22;9237;48.590;8.854;2023-04-25T08:34:23;5.90;99.90
18225;DHT22;9237;48.590;8.854;2023-04-25T08:36:51;5.90;99.90
18225;DHT22;9237;48.590;8.854;2023-04-25T08:39:18;5.80;99.90
18225;DHT22;9237;48.590;8.854;2023-04-25T08:41:46;6.10;99.90
18225;DHT22;9237;48.590;8.854;2023-04-25T08:44:14;5.70;99.90
18225;DHT22;9237;48.590;8.854;2023-04-25T08:46:46;5.70;99.90
18225;DHT22;9237;48.590;8.854;2023-04-25T08:49:17;5.80;99.90
18225;DHT22;9237;48.590;8.854;2023-04-25T08:51:45;5.90;99.90
18225;DHT22;9237;48.590;8.854;2023-04-25T08:54:14;5.80;99.90
18225;DHT22;9237;48.590;8.854;2023-04-25T08:56:44;5.70;99.90
18225;DHT22;9237;48.590;8.854;2023-04-25T08:59:11;5.60;99.90
18225;DHT22;9237;48.590;8.854;2023-04-25T09:01:39;5.50;99.90
18225;DHT22;9237;48.590;8.854;2023-04-25T09:04:06;5.40;99.90
18225;DHT22;9237;48.590;8.854;2023-04-25T09:06:35;5.30;99.90
18225;DHT22;9237;48.590;8.854;2023-04-25T09:09:03;5.30;99.90
18225;DHT22;9237;48.590;8.854;2023-04-25T09:11:31;5.30;99.90
18225;DHT22;9237;48.590;8.854;2023-04-25T09:14:12;5.20;99.90
18225;DHT22;9237;48.590;8.854;2023-04-25T09:16:59;5.10;99.90
18225;DHT22;9237;48.590;8.854;2023-04-25T09:19:27;5.00;99.90
18225;DHT22;9237;48.590;8.854;2023-04-25T09:21:57;5.10;99.90
18225;DHT22;9237;48.590;8.854;2023-04-25T09:24:31;5.10;99.90
18225;DHT22;9237;48.590;8.854;2023-04-25T09:26:58;5.00;99.90
18225;DHT22;9237;48.590;8.854;2023-04-25T09:29:30;4.90;99.90
18225;DHT22;9237;48.590;8.854;2023-04-25T09:32:11;4.80;99.90
18225;DHT22;9237;48.590;8.854;2023-04-25T09:34:39;4.80;99.90
18225;DHT22;9237;48.590;8.854;2023-04-25T09:37:10;4.80;99.90
18225;DHT22;9237;48.590;8.854;2023-04-25T09:39:37;4.80;99.90
18225;DHT22;9237;48.590;8.854;2023-04-25T09:42:04;4.70;99.90
18225;DHT22;9237;48.590;8.854;2023-04-25T09:44:31;4.70;99.90
18225;DHT22;9237;48.590;8.854;2023-04-25T09:46:58;4.70;99.90
18225;DHT22;9237;48.590;8.854;2023-04-25T09:49:25;4.70;99.90
18225;DHT22;9237;48.590;8.854;2023-04-25T09:51:56;4.70;99.90
18225;DHT22;9237;48.590;8.854;2023-04-25T09:54:25;4.70;99.90
18225;DHT22;9237;48.590;8.854;2023-04-25T09:56:53;4.80;99.90
18225;DHT22;9237;48.590;8.854;2023-04-25T09:59:20;4.90;99.90
18225;DHT22;9237;48.590;8.854;2023-04-25T10:01:48;5.10;99.90
18225;DHT22;9237;48.590;8.854;2023-04-25T10:04:20;5.20;99.90
18225;DHT22;9237;48.590;8.854;2023-04-25T10:06:49;5.30;99.90
18225;DHT22;9237;48.590;8.854;2023-04-25T10:09:19;5.30;99.90
18225;DHT22;9237;48.590;8.854;2023-04-25T10:11:48;5.40;99.90
18225;DHT22;9237;48.590;8.854;2023-04-25T10:14:18;5.50;99.90
18225;DHT22;9237;48.590;8.854;2023-04-25T10:16:47;5.60;99.90
18225;DHT22;9237;48.590;8.854;2023-04-25T10:19:15;5.70;99.90
18225;DHT22;9237;48.590;8.854;2023-04-25T10:21:54;5.70;99.90
18225;DHT22;9237;48.590;8.854;2023-04-25T10:24:22;5.80;99.90
18225;DHT22;9237;48.590;8.854;2023-04-25T10:26:51;5.80;99.90
18225;DHT22;9237;48.590;8.854;2023-04-25T10:29:25;6.00;99.90
18225;DHT22;9237;48.590;8.854;2023-04-25T10:31:52;6.20;99.90
18225;DHT22;9237;48.590;8.854;2023-04-25T10:34:23;6.40;99.90
18225;DHT22;9237;48.590;8.854;2023-04-25T10:36:51;6.40;99.90
18225;DHT22;9237;48.590;8.854;2023-04-25T10:39:23;6.40;99.90
18225;DHT22;9237;48.590;8.854;2023-04-25T10:41:55;6.30;99.90
18225;DHT22;9237;48.590;8.854;2023-04-25T10:44:22;6.20;99.90
18225;DHT22;9237;48.590;8.854;2023-04-25T10:46:49;6.30;99.90
18225;DHT22;9237;48.590;8.854;2023-04-25T10:49:30;6.60;99.90
18225;DHT22;9237;48.590;8.854;2023-04-25T10:52:17;6.30;99.90
18225;DHT22;9237;48.590;8.854;2023-04-25T10:54:47;6.20;99.90
18225;DHT22;9237;48.590;8.854;2023-04-25T10:57:36;6.40;99.90
18225;DHT22;9237;48.590;8.854;2023-04-25T11:00:14;6.50;99.90
18225;DHT22;9237;48.590;8.854;2023-04-25T11:02:42;6.80;99.90
18225;DHT22;9237;48.590;8.854;2023-04-25T11:05:16;7.10;99.90
18225;DHT22;9237;48.590;8.854;2023-04-25T11:07:50;7.20;99.90
18225;DHT22;9237;48.590;8.854;2023-04-25T11:10:17;7.30;99.90
18225;DHT22;9237;48.590;8.854;2023-04-25T11:12:46;7.30;99.90
18225;DHT22;9237;48.590;8.854;2023-04-25T11:15:13;7.20;99.90
18225;DHT22;9237;48.590;8.854;2023-04-25T11:17:40;7.10;99.90
18225;DHT22;9237;48.590;8.854;2023-04-25T11:20:09;7.20;99.90
18225;DHT22;9237;48.590;8.854;2023-04-25T11:22:37;7.40;99.90
18225;DHT22;9237;48.590;8.854;2023-04-25T11:25:06;7.40;99.90
18225;DHT22;9237;48.590;8.854;2023-04-25T11:27:33;7.40;99.90
18225;DHT22;9237;48.590;8.854;2023-04-25T11:30:12;7.30;99.90
18225;DHT22;9237;48.590;8.854;2023-04-25T11:32:40;7.30;99.90
18225;DHT22;9237;48.590;8.854;2023-04-25T11:35:07;7.50;99.90
18225;DHT22;9237;48.590;8.854;2023-04-25T11:37:34;7.50;99.90
18225;DHT22;9237;48.590;8.854;2023-04-25T11:40:03;7.60;99.90
18225;DHT22;9237;48.590;8.854;2023-04-25T11:42:31;7.50;99.90
18225;DHT22;9237;48.590;8.854;2023-04-25T11:44:58;7.50;99.90
18225;DHT22;9237;48.590;8.854;2023-04-25T11:47:29;7.70;99.90
18225;DHT22;9237;48.590;8.854;2023-04-25T11:49:58;7.70;99.90
18225;DHT22;9237;48.590;8.854;2023-04-25T11:52:25;7.60;99.90
18225;DHT22;9237;48.590;8.854;2023-04-25T11:55:01;7.70;99.90
18225;DHT22;9237;48.590;8.854;2023-04-25T11:57:31;7.70;99.90
18225;DHT22;9237;48.590;8.854;2023-04-25T12:00:06;7.60;99.90
18225;DHT22;9237;48.590;8.854;2023-04-25T12:02:36;7.30;99.90
18225;DHT22;9237;48.590;8.854;2023-04-25T12:05:06;7.20;99.90
18225;DHT22;9237;48.590;8.854;2023-04-25T12:07:33;7.20;99.90
18225;DHT22;9237;48.590;8.854;2023-04-25T12:10:04;7.10;99.90
18225;DHT22;9237;48.590;8.854;2023-04-25T12:12:32;7.10;99.90
18225;DHT22;9237;48.590;8.854;2023-04-25T12:15:08;7.20;99.90
18225;DHT22;9237;48.590;8.854;2023-04-25T12:17:36;7.20;99.90
18225;DHT22;9237;48.590;8.854;2023-04-25T12:20:07;7.20;99.90
18225;DHT22;9237;48.590;8.854;2023-04-25T12:22:34;7.20;99.90
18225;DHT22;9237;48.590;8.854;2023-04-25T12:25:01;7.20;99.90
18225;DHT22;9237;48.590;8.854;2023-04-25T12:27:31;7.20;99.90
18225;DHT22;9237;48.590;8.854;2023-04-25T12:29:58;7.10;99.90
18225;DHT22;9237;48.590;8.854;2023-04-25T12:32:24;7.20;99.90
18225;DHT22;9237;48.590;8.854;2023-04-25T12:34:53;7.10;99.90
18225;DHT22;9237;48.590;8.854;2023-04-25T12:37:20;7.20;99.90
18225;DHT22;9237;48.590;8.854;2023-04-25T12:39:46;7.20;99.90
18225;DHT22;9237;48.590;8.854;2023-04-25T12:42:13;7.40;99.90
18225;DHT22;9237;48.590;8.854;2023-04-25T12:44:40;7.40;99.90
18225;DHT22;9237;48.590;8.854;2023-04-25T12:47:07;7.40;99.90
18225;DHT22;9237;48.590;8.854;2023-04-25T12:49:34;7.50;99.90
18225;DHT22;9237;48.590;8.854;2023-04-25T12:52:02;7.60;99.90
18225;DHT22;9237;48.590;8.854;2023-04-25T12:54:29;7.70;99.90
18225;DHT22;9237;48.590;8.854;2023-04-25T12:56:56;7.80;99.90
18225;DHT22;9237;48.590;8.854;2023-04-25T12:59:23;7.70;99.90
18225;DHT22;9237;48.590;8.854;2023-04-25T13:01:50;7.70;99.90
18225;DHT22;9237;48.590;8.854;2023-04-25T13:04:17;7.70;99.90
18225;DHT22;9237;48.590;8.854;2023-04-25T13:06:46;7.90;99.90
18225;DHT22;9237;48.590;8.854;2023-04-25T13:09:14;8.00;99.90
18225;DHT22;9237;48.590;8.854;2023-04-25T13:11:41;8.00;99.90
18225;DHT22;9237;48.590;8.854;2023-04-25T13:14:08;8.00;99.90
18225;DHT22;9237;48.590;8.854;2023-04-25T13:16:34;8.20;99.90
18225;DHT22;9237;48.590;8.854;2023-04-25T13:19:01;8.40;99.90
18225;DHT22;9237;48.590;8.854;2023-04-25T13:21:30;8.40;99.90
18225;DHT22;9237;48.590;8.854;2023-04-25T13:23:57;8.70;99.90
18225;DHT22;9237;48.590;8.854;2023-04-25T13:26:25;9.00;99.90
18225;DHT22;9237;48.590;8.854;2023-04-25T13:28:52;9.10;99.90
18225;DHT22;9237;48.590;8.854;2023-04-25T13:31:19;9.40;99.90
18225;DHT22;9237;48.590;8.854;2023-04-25T13:33:46;9.70;99.90
18225;DHT22;9237;48.590;8.854;2023-04-25T13:36:13;9.80;99.90
18225;DHT22;9237;48.590;8.854;2023-04-25T13:38:40;10.90;99.90
18225;DHT22;9237;48.590;8.854;2023-04-25T13:41:09;10.90;99.90
18225;DHT22;9237;48.590;8.854;2023-04-25T13:43:38;10.90;99.90
18225;DHT22;9237;48.590;8.854;2023-04-25T13:46:04;11.70;99.90
18225;DHT22;9237;48.590;8.854;2023-04-25T13:48:31;12.30;99.90
18225;DHT22;9237;48.590;8.854;2023-04-25T13:50:58;12.40;99.90
18225;DHT22;9237;48.590;8.854;2023-04-25T13:53:25;12.80;99.90
18225;DHT22;9237;48.590;8.854;2023-04-25T13:55:52;12.90;99.90
18225;DHT22;9237;48.590;8.854;2023-04-25T13:58:19;12.80;99.90
18225;DHT22;9237;48.590;8.854;2023-04-25T14:00:47;12.20;99.90
18225;DHT22;9237;48.590;8.854;2023-04-25T14:03:14;11.10;99.90
18225;DHT22;9237;48.590;8.854;2023-04-25T14:05:41;11.00;99.90
18225;DHT22;9237;48.590;8.854;2023-04-25T14:08:09;10.50;99.90
18225;DHT22;9237;48.590;8.854;2023-04-25T14:10:36;10.20;99.90
18225;DHT22;9237;48.590;8.854;2023-04-25T14:13:05;9.70;99.90
18225;DHT22;9237;48.590;8.854;2023-04-25T14:15:32;9.90;99.90
18225;DHT22;9237;48.590;8.854;2023-04-25T14:18:01;10.30;99.90
18225;DHT22;9237;48.590;8.854;2023-04-25T14:20:28;10.60;99.90
18225;DHT22;9237;48.590;8.854;2023-04-25T14:22:55;10.50;99.90
18225;DHT22;9237;48.590;8.854;2023-04-25T14:25:23;10.60;99.90
18225;DHT22;9237;48.590;8.854;2023-04-25T14:27:51;10.60;99.90
18225;DHT22;9237;48.590;8.854;2023-04-25T14:30:18;10.50;99.90
18225;DHT22;9237;48.590;8.854;2023-04-25T14:32:45;10.50;99.90
18225;DHT22;9237;48.590;8.854;2023-04-25T14:35:14;11.00;99.90
18225;DHT22;9237;48.590;8.854;2023-04-25T14:37:40;9.90;99.90
18225;DHT22;9237;48.590;8.854;2023-04-25T14:40:08;10.10;99.90
18225;DHT22;9237;48.590;8.854;2023-04-25T14:42:36;10.00;99.90
18225;DHT22;9237;48.590;8.854;2023-04-25T14:45:03;10.30;99.90
18225;DHT22;9237;48.590;8.854;2023-04-25T14:47:30;10.40;99.90
18225;DHT22;9237;48.590;8.854;2023-04-25T14:49:57;10.90;99.90
18225;DHT22;9237;48.590;8.854;2023-04-25T14:52:25;11.50;99.90
18225;DHT22;9237;48.590;8.854;2023-04-25T14:54:52;11.00;99.90
18225;DHT22;9237;48.590;8.854;2023-04-25T14:57:19;11.20;99.90
18225;DHT22;9237;48.590;8.854;2023-04-25T14:59:46;10.90;99.90
18225;DHT22;9237;48.590;8.854;2023-04-25T15:02:13;10.70;99.90
18225;DHT22;9237;48.590;8.854;2023-04-25T15:04:39;10.40;99.90
18225;DHT22;9237;48.590;8.854;2023-04-25T15:07:07;10.50;99.90
18225;DHT22;9237;48.590;8.854;2023-04-25T15:09:35;10.80;99.90
18225;DHT22;9237;48.590;8.854;2023-04-25T15:12:02;11.20;99.90
18225;DHT22;9237;48.590;8.854;2023-04-25T15:14:29;12.10;99.90
18225;DHT22;9237;48.590;8.854;2023-04-25T15:16:56;13.30;99.90
18225;DHT22;9237;48.590;8.854;2023-04-25T15:19:23;14.20;99.90
18225;DHT22;9237;48.590;8.854;2023-04-25T15:21:49;14.50;99.90
18225;DHT22;9237;48.590;8.854;2023-04-25T15:24:16;15.50;99.90
18225;DHT22;9237;48.590;8.854;2023-04-25T15:26:44;15.10;99.90
18225;DHT22;9237;48.590;8.854;2023-04-25T15:29:11;14.20;99.90
18225;DHT22;9237;48.590;8.854;2023-04-25T15:31:38;13.80;99.90
18225;DHT22;9237;48.590;8.854;2023-04-25T15:34:05;13.10;99.90
18225;DHT22;9237;48.590;8.854;2023-04-25T15:36:32;12.10;99.90
18225;DHT22;9237;48.590;8.854;2023-04-25T15:38:59;11.80;99.90
18225;DHT22;9237;48.590;8.854;2023-04-25T15:41:26;11.60;99.90
18225;DHT22;9237;48.590;8.854;2023-04-25T15:43:54;11.50;99.90
18225;DHT22;9237;48.590;8.854;2023-04-25T15:46:20;10.90;99.90
18225;DHT22;9237;48.590;8.854;2023-04-25T15:48:48;11.00;99.90
18225;DHT22;9237;48.590;8.854;2023-04-25T15:51:15;11.40;99.90
18225;DHT22;9237;48.590;8.854;2023-04-25T15:53:42;11.60;99.90
18225;DHT22;9237;48.590;8.854;2023-04-25T15:56:09;11.70;99.90
18225;DHT22;9237;48.590;8.854;2023-04-25T15:58:35;11.60;99.90
18225;DHT22;9237;48.590;8.854;2023-04-25T16:01:04;11.50;99.90
18225;DHT22;9237;48.590;8.854;2023-04-25T16:03:32;11.30;99.90
18225;DHT22;9237;48.590;8.854;2023-04-25T16:05:59;11.10;99.90